| time (UTC) | temp F | wind direction | speed MPH | gust MPH | rain 1hr in | rain 24hr in | rain mn in | humidity % | barometer mb |
| 20260906185852 | 92 | 54 | 1.0 | 5.0 | 0.01 | 0.11 | 0.06 | 59 | 1012.2 |
| 20260906185348 | 91 | 300 | 2.0 | 5.0 | 0.01 | 0.11 | 0.06 | 58 | 1012.2 |
| 20260906184822 | 91 | 316 | 1.0 | 6.0 | 0.01 | 0.11 | 0.06 | 60 | 1012.3 |
| 20260906184340 | 91 | 306 | 2.0 | 6.0 | 0.01 | 0.11 | 0.06 | 60 | 1012.4 |
| 20260906183834 | 91 | 316 | 1.0 | 5.0 | 0.01 | 0.11 | 0.06 | 61 | 1012.3 |
| 20260906183328 | 91 | 307 | 1.0 | 5.0 | 0.01 | 0.11 | 0.06 | 61 | 1012.4 |
| 20260906182824 | 91 | 277 | 1.0 | 6.0 | 0.01 | 0.11 | 0.06 | 62 | 1012.4 |
| 20260906182321 | 91 | 30 | 1.0 | 6.0 | 0.01 | 0.11 | 0.06 | 63 | 1012.5 |
| 20260906181819 | 91 | 300 | 0.0 | 6.0 | 0.01 | 0.12 | 0.06 | 63 | 1012.6 |
| 20260906181336 | 91 | 280 | 2.0 | 5.0 | 0.01 | 0.12 | 0.06 | 61 | 1012.6 |
| 20260906180852 | 91 | 310 | 1.0 | 3.0 | 0.01 | 0.12 | 0.06 | 62 | 1012.8 |
| 20260906180325 | 90 | 355 | 0.0 | 2.0 | 0.00 | 0.11 | 0.05 | 64 | 1012.8 |
| 20260906175841 | 90 | 302 | 0.0 | 5.0 | 0.00 | 0.11 | 0.05 | 62 | 1012.8 |
| 20260906175335 | 90 | 316 | 2.0 | 5.0 | 0.00 | 0.11 | 0.05 | 60 | 1012.7 |
| 20260906174828 | 90 | 321 | 0.0 | 4.0 | 0.00 | 0.11 | 0.05 | 64 | 1012.8 |
| 20260906174325 | 89 | 307 | 327.0 | 327.0 | 0.00 | 0.11 | 0.05 | 62 | 1012.9 |
| 20260906173818 | 89 | 319 | 1.0 | 5.0 | 0.00 | 0.11 | 0.05 | 62 | 1013.0 |
| 20260906173314 | 90 | 283 | 1.0 | 4.0 | 0.00 | 0.11 | 0.05 | 64 | 1013.0 |
| 20260906172857 | 90 | 318 | 0.0 | 3.0 | 0.01 | 0.11 | 0.05 | 68 | 1013.1 |
| 20260906172352 | 89 | 273 | 0.0 | 4.0 | 0.01 | 0.11 | 0.05 | 66 | 1013.1 |
| 20260906171828 | 89 | 304 | 2.0 | 4.0 | 0.01 | 0.11 | 0.05 | 63 | 1013.2 |
| 20260906171323 | 89 | 317 | 1.0 | 3.0 | 0.01 | 0.11 | 0.05 | 67 | 1013.1 |
| 20260906170819 | 89 | 228 | 0.0 | 4.0 | 0.01 | 0.11 | 0.05 | 64 | 1013.2 |
| 20260906170325 | 89 | 289 | 1.0 | 3.0 | 0.01 | 0.11 | 0.05 | 67 | 1013.3 |
| 20260906165821 | 88 | 340 | 0.0 | 2.0 | 0.01 | 0.11 | 0.05 | 68 | 1013.4 |
| 20260906165319 | 88 | 313 | 0.0 | 5.0 | 0.01 | 0.11 | 0.05 | 67 | 1013.5 |
| 20260906164813 | 88 | 299 | 0.0 | 5.0 | 0.01 | 0.11 | 0.05 | 70 | 1013.6 |
| 20260906164329 | 88 | 263 | 0.0 | 3.0 | 0.01 | 0.11 | 0.05 | 70 | 1013.7 |
| 20260906163822 | 87 | 292 | 0.0 | 5.0 | 0.01 | 0.11 | 0.05 | 68 | 1013.7 |
| 20260906163339 | 87 | 350 | 0.0 | 5.0 | 0.01 | 0.11 | 0.05 | 70 | 1013.7 |
| 20260906162852 | 87 | 321 | 1.0 | 3.0 | 0.00 | 0.10 | 0.04 | 69 | 1013.7 |
| 20260906162327 | 86 | 290 | 0.0 | 4.0 | 0.00 | 0.10 | 0.04 | 72 | 1013.8 |
| 20260906161822 | 86 | 286 | 1.0 | 5.0 | 0.00 | 0.11 | 0.04 | 72 | 1013.7 |
| 20260906161318 | 86 | 311 | 2.0 | 5.0 | 0.00 | 0.11 | 0.04 | 69 | 1013.7 |
| 20260906160833 | 86 | 324 | 1.0 | 4.0 | 0.00 | 0.11 | 0.04 | 69 | 1013.7 |
| 20260906160351 | 86 | 326 | 0.0 | 3.0 | 0.00 | 0.11 | 0.04 | 71 | 1013.7 |
| 20260906155824 | 86 | 304 | 1.0 | 3.0 | 0.00 | 0.11 | 0.04 | 70 | 1013.7 |
| 20260906155320 | 86 | 277 | 0.0 | 4.0 | 0.00 | 0.11 | 0.04 | 71 | 1013.7 |
| 20260906154818 | 86 | 324 | 1.0 | 4.0 | 0.01 | 0.11 | 0.04 | 70 | 1013.6 |
| 20260906154313 | 87 | 13 | 0.0 | 2.0 | 0.01 | 0.11 | 0.04 | 72 | 1013.7 |
| 20260906153830 | 86 | 303 | 0.0 | 2.0 | 0.01 | 0.11 | 0.04 | 72 | 1013.6 |
| 20260906153346 | 86 | 351 | 0.0 | 1.0 | 0.01 | 0.11 | 0.04 | 73 | 1013.7 |
| 20260906152840 | 86 | 232 | 0.0 | 1.0 | 0.01 | 0.11 | 0.04 | 73 | 1013.5 |
| 20260906152333 | 86 | 296 | 0.0 | 0.0 | 0.01 | 0.11 | 0.04 | 72 | 1013.4 |
| 20260906151828 | 85 | 32 | 0.0 | 2.0 | 0.01 | 0.11 | 0.04 | 75 | 1013.4 |
| 20260906151321 | 85 | 32 | 0.0 | 3.0 | 0.01 | 0.11 | 0.04 | 74 | 1013.3 |
| 20260906150836 | 85 | 324 | 1.0 | 3.0 | 0.01 | 0.11 | 0.04 | 73 | 1013.3 |
| 20260906150350 | 85 | 305 | 0.0 | 0.0 | 0.01 | 0.11 | 0.04 | 75 | 1013.4 |
| 20260906145825 | 85 | 305 | 0.0 | 2.0 | 0.01 | 0.11 | 0.04 | 76 | 1013.4 |
| 20260906145329 | 84 | 305 | 0.0 | 2.0 | 0.01 | 0.11 | 0.04 | 76 | 1013.2 |
| 20260906144826 | 84 | 309 | 0.0 | 4.0 | 0.00 | 0.10 | 0.03 | 76 | 1013.3 |
| 20260906144320 | 84 | 317 | 1.0 | 4.0 | 0.00 | 0.10 | 0.03 | 76 | 1013.3 |
| 20260906143815 | 84 | 335 | 0.0 | 3.0 | 0.00 | 0.10 | 0.03 | 78 | 1013.3 |
| 20260906142813 | 83 | 298 | 0.0 | 3.0 | 0.00 | 0.10 | 0.03 | 78 | 1013.3 |
| 20260906142353 | 83 | 302 | 0.0 | 2.0 | 0.00 | 0.10 | 0.03 | 78 | 1013.3 |
| 20260906141828 | 83 | 259 | 0.0 | 2.0 | 0.00 | 0.11 | 0.03 | 79 | 1013.4 |
| 20260906141326 | 83 | 321 | 0.0 | 1.0 | 0.00 | 0.11 | 0.03 | 79 | 1013.6 |
| 20260906140843 | 83 | 262 | 0.0 | 3.0 | 0.00 | 0.11 | 0.03 | 80 | 1013.6 |
| 20260906140318 | 83 | 312 | 1.0 | 3.0 | 0.00 | 0.11 | 0.03 | 80 | 1013.7 |
| 20260906135833 | 82 | 300 | 0.0 | 4.0 | 0.01 | 0.11 | 0.03 | 82 | 1013.6 |
| 20260906135328 | 82 | 300 | 0.0 | 4.0 | 0.01 | 0.11 | 0.03 | 81 | 1013.6 |
| 20260906134823 | 82 | 304 | 0.0 | 0.0 | 0.01 | 0.11 | 0.03 | 83 | 1013.7 |
| 20260906134319 | 82 | 304 | 0.0 | 1.0 | 0.01 | 0.11 | 0.03 | 83 | 1013.8 |
| 20260906133816 | 81 | 304 | 0.0 | 2.0 | 0.01 | 0.11 | 0.03 | 83 | 1013.9 |
| 20260906133332 | 81 | 286 | 0.0 | 0.0 | 0.01 | 0.11 | 0.03 | 83 | 1013.8 |
| 20260906132827 | 81 | 309 | 0.0 | 0.0 | 0.01 | 0.11 | 0.03 | 83 | 1013.7 |
| 20260906132322 | 81 | 294 | 0.0 | 0.0 | 0.01 | 0.11 | 0.03 | 84 | 1013.6 |
| 20260906131836 | 81 | 226 | 0.0 | 0.0 | 0.01 | 0.11 | 0.03 | 84 | 1013.4 |
| 20260906131352 | 80 | 225 | 0.0 | 0.0 | 0.01 | 0.11 | 0.03 | 84 | 1013.4 |
| 20260906130827 | 80 | 225 | 0.0 | 0.0 | 0.01 | 0.11 | 0.03 | 85 | 1013.4 |
| 20260906130324 | 80 | 226 | 0.0 | 0.0 | 0.01 | 0.11 | 0.03 | 85 | 1013.3 |
| 20260906125821 | 79 | 225 | 0.0 | 0.0 | 0.00 | 0.10 | 0.02 | 86 | 1013.3 |
| 20260906125316 | 79 | 225 | 0.0 | 0.0 | 0.00 | 0.10 | 0.02 | 87 | 1013.3 |
| 20260906124830 | 79 | 225 | 0.0 | 0.0 | 0.00 | 0.10 | 0.02 | 88 | 1013.3 |
| 20260906124327 | 78 | 225 | 0.0 | 0.0 | 0.00 | 0.10 | 0.02 | 88 | 1013.2 |
| 20260906123820 | 78 | 225 | 0.0 | 0.0 | 0.00 | 0.10 | 0.02 | 88 | 1013.2 |
| 20260906123333 | 78 | 225 | 0.0 | 0.0 | 0.00 | 0.10 | 0.02 | 89 | 1013.1 |
| 20260906122848 | 78 | 225 | 0.0 | 0.0 | 0.00 | 0.10 | 0.02 | 89 | 1013.0 |
| 20260906122324 | 77 | 225 | 0.0 | 0.0 | 0.00 | 0.10 | 0.02 | 89 | 1012.9 |
| 20260906121818 | 77 | 225 | 0.0 | 0.0 | 0.00 | 0.10 | 0.02 | 89 | 1012.7 |
| 20260906121313 | 77 | 225 | 0.0 | 0.0 | 0.00 | 0.10 | 0.02 | 89 | 1012.7 |
| 20260906120829 | 77 | 225 | 0.0 | 0.0 | 0.00 | 0.10 | 0.02 | 89 | 1012.6 |
| 20260906120323 | 76 | 225 | 0.0 | 0.0 | 0.00 | 0.10 | 0.02 | 89 | 1012.6 |
| 20260906115817 | 76 | 225 | 0.0 | 0.0 | 0.00 | 0.10 | 0.02 | 89 | 1012.5 |
| 20260906115357 | 76 | 225 | 0.0 | 0.0 | 0.00 | 0.10 | 0.02 | 89 | 1012.5 |
| 20260906114850 | 76 | 225 | 0.0 | 0.0 | 0.00 | 0.10 | 0.02 | 89 | 1012.4 |
| 20260906114345 | 76 | 225 | 0.0 | 0.0 | 0.00 | 0.10 | 0.02 | 89 | 1012.4 |
| 20260906113821 | 76 | 225 | 0.0 | 1.0 | 0.01 | 0.10 | 0.02 | 89 | 1012.4 |
| 20260906113316 | 76 | 225 | 0.0 | 1.0 | 0.01 | 0.10 | 0.02 | 89 | 1012.3 |
| 20260906112834 | 76 | 225 | 0.0 | 0.0 | 0.01 | 0.10 | 0.02 | 89 | 1012.3 |
| 20260906112331 | 76 | 225 | 0.0 | 0.0 | 0.01 | 0.10 | 0.02 | 89 | 1012.4 |
| 20260906111825 | 76 | 225 | 0.0 | 0.0 | 0.01 | 0.11 | 0.02 | 89 | 1012.5 |
| 20260906111320 | 76 | 225 | 0.0 | 0.0 | 0.01 | 0.11 | 0.02 | 89 | 1012.5 |
| 20260906110834 | 76 | 225 | 0.0 | 0.0 | 0.01 | 0.11 | 0.02 | 89 | 1012.4 |
| 20260906110349 | 76 | 225 | 0.0 | 0.0 | 0.01 | 0.11 | 0.02 | 89 | 1012.3 |
| 20260906105826 | 76 | 225 | 0.0 | 0.0 | 0.01 | 0.11 | 0.02 | 89 | 1012.3 |
| 20260906105322 | 76 | 225 | 0.0 | 0.0 | 0.01 | 0.11 | 0.02 | 89 | 1012.2 |
| 20260906104817 | 76 | 225 | 0.0 | 0.0 | 0.01 | 0.11 | 0.02 | 89 | 1012.1 |
| 20260906104334 | 76 | 225 | 0.0 | 0.0 | 0.01 | 0.11 | 0.02 | 89 | 1012.0 |
| 20260906103850 | 76 | 225 | 0.0 | 0.0 | 0.00 | 0.10 | 0.01 | 89 | 1012.0 |
| 20260906103318 | 76 | 225 | 0.0 | 0.0 | 0.00 | 0.10 | 0.01 | 89 | 1011.8 |
| 20260906102833 | 76 | 225 | 0.0 | 0.0 | 0.00 | 0.10 | 0.01 | 89 | 1011.9 |
| 20260906102347 | 76 | 225 | 0.0 | 0.0 | 0.00 | 0.10 | 0.01 | 89 | 1011.8 |
| 20260906101823 | 76 | 225 | 0.0 | 0.0 | 0.00 | 0.10 | 0.01 | 89 | 1011.8 |
| 20260906101320 | 76 | 225 | 0.0 | 0.0 | 0.00 | 0.10 | 0.01 | 89 | 1011.9 |
| 20260906100815 | 77 | 225 | 0.0 | 0.0 | 0.00 | 0.10 | 0.01 | 89 | 1011.8 |
| 20260906100330 | 77 | 225 | 0.0 | 0.0 | 0.00 | 0.10 | 0.01 | 89 | 1011.8 |
| 20260906095825 | 77 | 225 | 0.0 | 0.0 | 0.00 | 0.10 | 0.01 | 89 | 1011.8 |
| 20260906095340 | 77 | 225 | 0.0 | 0.0 | 0.00 | 0.10 | 0.01 | 89 | 1011.6 |
| 20260906094836 | 77 | 225 | 0.0 | 0.0 | 0.00 | 0.10 | 0.01 | 89 | 1011.6 |
| 20260906094347 | 77 | 225 | 0.0 | 0.0 | 0.00 | 0.10 | 0.01 | 89 | 1011.5 |
| 20260906093823 | 77 | 225 | 0.0 | 1.0 | 0.00 | 0.10 | 0.01 | 89 | 1011.6 |
| 20260906093319 | 77 | 225 | 0.0 | 1.0 | 0.00 | 0.10 | 0.01 | 89 | 1011.6 |
| 20260906092816 | 77 | 225 | 0.0 | 1.0 | 0.00 | 0.10 | 0.01 | 89 | 1011.6 |
| 20260906092331 | 77 | 225 | 0.0 | 0.0 | 0.00 | 0.10 | 0.01 | 89 | 1011.7 |
| 20260906091828 | 77 | 225 | 0.0 | 0.0 | 0.00 | 0.10 | 0.01 | 89 | 1011.7 |
| 20260906091324 | 77 | 225 | 0.0 | 0.0 | 0.00 | 0.10 | 0.01 | 89 | 1011.7 |
| 20260906090820 | 77 | 225 | 0.0 | 0.0 | 0.00 | 0.10 | 0.01 | 89 | 1011.7 |
| 20260906090316 | 77 | 225 | 0.0 | 0.0 | 0.01 | 0.10 | 0.01 | 89 | 1011.8 |
| 20260906085834 | 77 | 225 | 0.0 | 0.0 | 0.01 | 0.10 | 0.01 | 89 | 1011.8 |
| 20260906085330 | 77 | 225 | 0.0 | 0.0 | 0.01 | 0.10 | 0.01 | 89 | 1011.8 |
| 20260906084826 | 77 | 225 | 0.0 | 0.0 | 0.01 | 0.10 | 0.01 | 89 | 1011.8 |
| 20260906084319 | 77 | 225 | 0.0 | 0.0 | 0.01 | 0.10 | 0.01 | 89 | 1011.8 |
| 20260906083816 | 77 | 225 | 0.0 | 0.0 | 0.01 | 0.10 | 0.01 | 89 | 1011.7 |
| 20260906083333 | 77 | 225 | 0.0 | 0.0 | 0.01 | 0.10 | 0.01 | 89 | 1011.7 |
| 20260906082828 | 77 | 225 | 0.0 | 0.0 | 0.01 | 0.10 | 0.01 | 89 | 1011.6 |
| 20260906082324 | 77 | 225 | 0.0 | 0.0 | 0.01 | 0.10 | 0.01 | 89 | 1011.7 |
| 20260906081839 | 77 | 225 | 0.0 | 0.0 | 0.01 | 0.11 | 0.01 | 89 | 1011.6 |
| 20260906081335 | 77 | 225 | 0.0 | 0.0 | 0.01 | 0.11 | 0.01 | 89 | 1011.6 |
| 20260906080852 | 77 | 225 | 0.0 | 0.0 | 0.01 | 0.11 | 0.01 | 89 | 1011.6 |
| 20260906080326 | 77 | 225 | 0.0 | 0.0 | 0.00 | 0.10 | 0.00 | 89 | 1011.6 |
| 20260906075840 | 77 | 225 | 0.0 | 1.0 | 0.00 | 0.10 | 0.00 | 89 | 1011.6 |
| 20260906075315 | 77 | 225 | 0.0 | 1.0 | 0.00 | 0.10 | 0.00 | 89 | 1011.6 |
| 20260906074831 | 77 | 225 | 0.0 | 0.0 | 0.00 | 0.10 | 0.00 | 89 | 1011.6 |
| 20260906074328 | 77 | 225 | 0.0 | 0.0 | 0.00 | 0.10 | 0.00 | 89 | 1011.6 |
| 20260906073911 | 77 | 225 | 0.0 | 0.0 | 0.00 | 0.10 | 0.00 | 89 | 1011.6 |
| 20260906073325 | 77 | 225 | 0.0 | 0.0 | 0.00 | 0.10 | 0.00 | 89 | 1011.5 |
| 20260906072821 | 77 | 225 | 0.0 | 0.0 | 0.00 | 0.10 | 0.00 | 89 | 1011.6 |
| 20260906072336 | 77 | 225 | 0.0 | 0.0 | 0.00 | 0.10 | 0.00 | 89 | 1011.6 |
| 20260906071853 | 77 | 225 | 0.0 | 0.0 | 0.00 | 0.10 | 0.10 | 89 | 1011.6 |
| 20260906071328 | 77 | 225 | 0.0 | 1.0 | 0.00 | 0.10 | 0.10 | 89 | 1011.6 |
| 20260906070824 | 77 | 225 | 0.0 | 1.0 | 0.00 | 0.10 | 0.10 | 89 | 1011.7 |
| 20260906070317 | 77 | 225 | 0.0 | 0.0 | 0.00 | 0.10 | 0.10 | 89 | 1011.7 |
| 20260906065814 | 77 | 225 | 0.0 | 0.0 | 0.00 | 0.10 | 0.10 | 89 | 1011.7 |
| 20260906065326 | 77 | 225 | 0.0 | 0.0 | 0.00 | 0.10 | 0.10 | 89 | 1011.7 |
| 20260906064823 | 77 | 225 | 0.0 | 0.0 | 0.00 | 0.10 | 0.10 | 89 | 1011.8 |
| 20260906064321 | 77 | 225 | 0.0 | 0.0 | 0.00 | 0.10 | 0.10 | 88 | 1011.8 |
| 20260906063839 | 77 | 225 | 0.0 | 0.0 | 0.00 | 0.10 | 0.10 | 89 | 1011.7 |
| 20260906063336 | 77 | 225 | 0.0 | 2.0 | 0.00 | 0.10 | 0.10 | 89 | 1011.6 |
| 20260906062851 | 77 | 225 | 0.0 | 2.0 | 0.01 | 0.10 | 0.10 | 89 | 1011.6 |
| 20260906062327 | 77 | 199 | 0.0 | 0.0 | 0.01 | 0.10 | 0.10 | 88 | 1011.6 |
| 20260906061822 | 77 | 199 | 0.0 | 0.0 | 0.01 | 0.10 | 0.10 | 88 | 1011.7 |
| 20260906061317 | 77 | 199 | 0.0 | 0.0 | 0.01 | 0.10 | 0.10 | 88 | 1011.8 |
| 20260906060833 | 77 | 199 | 0.0 | 3.0 | 0.01 | 0.10 | 0.10 | 89 | 1011.9 |
| 20260906060329 | 77 | 199 | 1.0 | 3.0 | 0.01 | 0.10 | 0.10 | 89 | 1011.8 |
| 20260906055805 | 77 | 255 | 0.0 | 1.0 | 0.01 | 0.10 | 0.10 | 89 | 1011.8 |
| 20260906055300 | 77 | 281 | 0.0 | 1.0 | 0.01 | 0.10 | 0.10 | 89 | 1011.7 |
| 20260906054756 | 77 | 281 | 0.0 | 1.0 | 0.01 | 0.10 | 0.10 | 89 | 1011.7 |
| 20260906054308 | 77 | 309 | 0.0 | 0.0 | 0.01 | 0.10 | 0.10 | 89 | 1011.7 |
| 20260906053805 | 77 | 334 | 0.0 | 0.0 | 0.01 | 0.10 | 0.10 | 89 | 1011.8 |
| 20260906053303 | 77 | 334 | 0.0 | 0.0 | 0.01 | 0.10 | 0.10 | 89 | 1011.8 |
| 20260906052820 | 77 | 200 | 0.0 | 0.0 | 0.00 | 0.09 | 0.09 | 89 | 1011.7 |
| 20260906052341 | 77 | 200 | 0.0 | 0.0 | 0.00 | 0.09 | 0.09 | 89 | 1011.7 |
| 20260906051835 | 77 | 200 | 0.0 | 0.0 | 0.00 | 0.10 | 0.09 | 89 | 1011.7 |
| 20260906051312 | 77 | 200 | 0.0 | 0.0 | 0.00 | 0.10 | 0.09 | 89 | 1011.7 |
| 20260906050829 | 77 | 200 | 0.0 | 0.0 | 0.00 | 0.10 | 0.09 | 89 | 1011.7 |
| 20260906050305 | 77 | 200 | 0.0 | 0.0 | 0.00 | 0.10 | 0.09 | 89 | 1011.7 |
| 20260906045801 | 77 | 200 | 0.0 | 0.0 | 0.00 | 0.10 | 0.09 | 89 | 1011.6 |
| 20260906045256 | 77 | 200 | 0.0 | 0.0 | 0.00 | 0.10 | 0.09 | 89 | 1011.5 |
| 20260906044813 | 77 | 200 | 0.0 | 0.0 | 0.00 | 0.10 | 0.09 | 89 | 1011.6 |
| 20260906044309 | 77 | 200 | 0.0 | 0.0 | 0.00 | 0.10 | 0.09 | 89 | 1011.7 |
| 20260906043805 | 77 | 200 | 0.0 | 0.0 | 0.00 | 0.10 | 0.09 | 89 | 1011.8 |
| 20260906043300 | 77 | 200 | 0.0 | 0.0 | 0.00 | 0.10 | 0.09 | 89 | 1011.7 |
| 20260906042816 | 77 | 200 | 0.0 | 0.0 | 0.00 | 0.10 | 0.09 | 89 | 1011.7 |
| 20260906042311 | 77 | 200 | 0.0 | 0.0 | 0.00 | 0.10 | 0.09 | 89 | 1011.8 |
| 20260906041807 | 77 | 200 | 0.0 | 0.0 | 0.00 | 0.10 | 0.09 | 89 | 1011.7 |
| 20260906041303 | 77 | 200 | 0.0 | 0.0 | 0.00 | 0.10 | 0.09 | 89 | 1011.6 |
| 20260906040759 | 77 | 200 | 0.0 | 0.0 | 0.00 | 0.10 | 0.09 | 89 | 1011.6 |
| 20260906040256 | 77 | 200 | 0.0 | 0.0 | 0.00 | 0.10 | 0.09 | 89 | 1011.6 |
| 20260906035814 | 77 | 200 | 0.0 | 0.0 | 0.00 | 0.10 | 0.09 | 89 | 1011.6 |
| 20260906035310 | 77 | 200 | 0.0 | 0.0 | 0.00 | 0.10 | 0.09 | 89 | 1011.5 |
| 20260906034806 | 77 | 200 | 0.0 | 0.0 | 0.00 | 0.10 | 0.09 | 89 | 1011.5 |
| 20260906034304 | 77 | 200 | 0.0 | 0.0 | 0.01 | 0.10 | 0.09 | 89 | 1011.6 |
| 20260906033800 | 77 | 200 | 0.0 | 0.0 | 0.01 | 0.10 | 0.09 | 89 | 1011.6 |
| 20260906033256 | 77 | 200 | 0.0 | 0.0 | 0.01 | 0.10 | 0.09 | 89 | 1011.8 |
| 20260906032810 | 77 | 200 | 0.0 | 0.0 | 0.01 | 0.10 | 0.09 | 89 | 1011.7 |
| 20260906032326 | 77 | 200 | 0.0 | 0.0 | 0.01 | 0.10 | 0.09 | 89 | 1011.7 |
| 20260906031802 | 77 | 200 | 0.0 | 0.0 | 0.01 | 0.11 | 0.09 | 89 | 1011.7 |
| 20260906031258 | 77 | 200 | 0.0 | 0.0 | 0.01 | 0.11 | 0.09 | 89 | 1011.7 |
| 20260906030813 | 77 | 200 | 0.0 | 0.0 | 0.01 | 0.11 | 0.09 | 89 | 1011.6 |
| 20260906030310 | 77 | 200 | 0.0 | 0.0 | 0.01 | 0.11 | 0.09 | 89 | 1011.6 |
| 20260906025805 | 77 | 200 | 0.0 | 0.0 | 0.01 | 0.11 | 0.09 | 89 | 1011.7 |
| 20260906025319 | 77 | 200 | 0.0 | 0.0 | 0.01 | 0.11 | 0.09 | 89 | 1011.6 |
| 20260906024836 | 77 | 200 | 0.0 | 0.0 | 0.01 | 0.11 | 0.09 | 89 | 1011.7 |
| 20260906024312 | 77 | 200 | 0.0 | 0.0 | 0.00 | 0.10 | 0.08 | 89 | 1011.8 |
| 20260906023807 | 77 | 200 | 0.0 | 0.0 | 0.00 | 0.10 | 0.08 | 89 | 1011.7 |
| 20260906023323 | 77 | 200 | 0.0 | 0.0 | 0.00 | 0.10 | 0.08 | 89 | 1011.5 |
| 20260906022757 | 77 | 200 | 0.0 | 0.0 | 0.00 | 0.10 | 0.08 | 89 | 1011.6 |
| 20260906022313 | 77 | 200 | 0.0 | 0.0 | 0.00 | 0.10 | 0.08 | 89 | 1011.5 |
| 20260906021811 | 77 | 200 | 0.0 | 0.0 | 0.00 | 0.10 | 0.08 | 89 | 1011.6 |
| 20260906021307 | 77 | 200 | 0.0 | 0.0 | 0.00 | 0.10 | 0.08 | 89 | 1011.7 |
| 20260906020803 | 77 | 200 | 0.0 | 0.0 | 0.00 | 0.10 | 0.08 | 89 | 1011.7 |
| 20260906020320 | 77 | 200 | 0.0 | 0.0 | 0.00 | 0.10 | 0.08 | 89 | 1011.8 |
| 20260906015836 | 77 | 200 | 0.0 | 0.0 | 0.00 | 0.10 | 0.08 | 89 | 1011.7 |
| 20260906014757 | 77 | 200 | 0.0 | 0.0 | 0.00 | 0.10 | 0.08 | 89 | 1011.5 |
| 20260906014312 | 77 | 200 | 0.0 | 0.0 | 0.00 | 0.10 | 0.08 | 89 | 1011.4 |
| 20260906013809 | 77 | 200 | 0.0 | 0.0 | 0.00 | 0.10 | 0.08 | 89 | 1011.3 |
| 20260906013306 | 77 | 200 | 0.0 | 0.0 | 0.00 | 0.10 | 0.08 | 89 | 1011.3 |
| 20260906012803 | 77 | 200 | 0.0 | 0.0 | 0.00 | 0.10 | 0.08 | 89 | 1011.3 |
| 20260906012301 | 77 | 200 | 0.0 | 0.0 | 0.00 | 0.10 | 0.08 | 88 | 1011.3 |
| 20260906011818 | 77 | 200 | 0.0 | 0.0 | 0.00 | 0.10 | 0.08 | 88 | 1011.3 |
| 20260906011331 | 77 | 200 | 0.0 | 0.0 | 0.01 | 0.10 | 0.08 | 88 | 1011.3 |
| 20260906010313 | 77 | 200 | 0.0 | 0.0 | 0.01 | 0.10 | 0.08 | 88 | 1011.4 |
| 20260906005808 | 77 | 200 | 0.0 | 0.0 | 0.01 | 0.10 | 0.08 | 88 | 1011.4 |
| 20260906005306 | 77 | 200 | 0.0 | 0.0 | 0.01 | 0.10 | 0.08 | 88 | 1011.5 |
| 20260906004803 | 77 | 200 | 0.0 | 0.0 | 0.01 | 0.10 | 0.08 | 89 | 1011.5 |
| 20260906004320 | 77 | 200 | 0.0 | 0.0 | 0.01 | 0.10 | 0.08 | 89 | 1011.5 |
| 20260906003815 | 77 | 200 | 0.0 | 0.0 | 0.01 | 0.10 | 0.08 | 89 | 1011.4 |
| 20260906003310 | 77 | 200 | 0.0 | 0.0 | 0.01 | 0.10 | 0.08 | 89 | 1011.4 |
| 20260906002805 | 77 | 200 | 0.0 | 0.0 | 0.01 | 0.10 | 0.08 | 89 | 1011.5 |
| 20260906002311 | 77 | 200 | 0.0 | 0.0 | 0.01 | 0.10 | 0.08 | 89 | 1011.4 |
| 20260906001807 | 77 | 200 | 0.0 | 0.0 | 0.01 | 0.11 | 0.08 | 89 | 1011.4 |
| 20260906001305 | 76 | 200 | 0.0 | 0.0 | 0.00 | 0.10 | 0.07 | 88 | 1011.6 |
| 20260906000802 | 76 | 200 | 0.0 | 0.0 | 0.00 | 0.10 | 0.07 | 88 | 1011.7 |
| 20260906000258 | 76 | 200 | 0.0 | 0.0 | 0.00 | 0.10 | 0.07 | 88 | 1011.6 |
| 20260905235814 | 76 | 200 | 0.0 | 0.0 | 0.00 | 0.10 | 0.07 | 88 | 1011.5 |
| 20260905235309 | 76 | 200 | 0.0 | 0.0 | 0.00 | 0.10 | 0.07 | 88 | 1011.6 |
| 20260905234827 | 76 | 200 | 0.0 | 0.0 | 0.00 | 0.10 | 0.07 | 88 | 1011.4 |
| 20260905234302 | 76 | 200 | 0.0 | 0.0 | 0.00 | 0.10 | 0.07 | 88 | 1011.4 |
| 20260905233818 | 76 | 200 | 0.0 | 0.0 | 0.00 | 0.10 | 0.07 | 88 | 1011.3 |
| 20260905233335 | 76 | 200 | 0.0 | 0.0 | 0.00 | 0.10 | 0.07 | 88 | 1011.4 |
| 20260905232810 | 75 | 200 | 0.0 | 0.0 | 0.00 | 0.10 | 0.07 | 87 | 1011.4 |
| 20260905232308 | 75 | 200 | 0.0 | 0.0 | 0.00 | 0.10 | 0.07 | 87 | 1011.6 |
| 20260905231804 | 75 | 200 | 0.0 | 2.0 | 0.00 | 0.10 | 0.07 | 86 | 1011.7 |
| 20260905231258 | 75 | 200 | 0.0 | 2.0 | 0.00 | 0.10 | 0.07 | 85 | 1011.7 |
| 20260905230816 | 75 | 96 | 0.0 | 2.0 | 0.00 | 0.10 | 0.07 | 85 | 1011.9 |
| 20260905230326 | 75 | 165 | 0.0 | 4.0 | 0.00 | 0.10 | 0.07 | 84 | 1012.0 |
| 20260905225802 | 75 | 172 | 1.0 | 4.0 | 0.00 | 0.10 | 0.07 | 83 | 1012.0 |
| 20260905225257 | 76 | 111 | 1.0 | 3.0 | 0.00 | 0.10 | 0.07 | 84 | 1012.3 |
| 20260905224814 | 76 | 177 | 0.0 | 4.0 | 0.00 | 0.10 | 0.07 | 84 | 1012.3 |
| 20260905224311 | 76 | 303 | 0.0 | 9.0 | 0.00 | 0.10 | 0.07 | 82 | 1012.1 |
| 20260905223807 | 77 | 173 | 1.0 | 9.0 | 0.01 | 0.10 | 0.07 | 81 | 1012.4 |
| 20260905223301 | 77 | 81 | 1.0 | 7.0 | 0.01 | 0.10 | 0.07 | 80 | 1012.4 |
| 20260905222816 | 79 | 294 | 1.0 | 7.0 | 0.01 | 0.10 | 0.07 | 79 | 1012.3 |
| 20260905222311 | 81 | 182 | 3.0 | 7.0 | 0.01 | 0.10 | 0.07 | 79 | 1012.4 |
| 20260905221808 | 82 | 230 | 3.0 | 9.0 | 0.01 | 0.11 | 0.07 | 78 | 1012.5 |
| 20260905221322 | 84 | 184 | 4.0 | 9.0 | 0.01 | 0.11 | 0.07 | 75 | 1012.4 |
| 20260905220836 | 85 | 163 | 2.0 | 11.0 | 0.01 | 0.11 | 0.07 | 71 | 1012.1 |
| 20260905220310 | 86 | 253 | 3.0 | 11.0 | 0.01 | 0.11 | 0.07 | 68 | 1011.8 |
| 20260905215806 | 88 | 289 | 1.0 | 4.0 | 0.01 | 0.11 | 0.07 | 69 | 1011.5 |
| 20260905215322 | 88 | 355 | 1.0 | 4.0 | 0.01 | 0.11 | 0.07 | 69 | 1011.3 |
| 20260905214840 | 89 | 22 | 1.0 | 4.0 | 0.01 | 0.11 | 0.07 | 68 | 1011.2 |
| 20260905214331 | 89 | 9 | 1.0 | 3.0 | 0.00 | 0.10 | 0.06 | 67 | 1011.4 |
| 20260905213805 | 89 | 60 | 1.0 | 3.0 | 0.00 | 0.10 | 0.06 | 67 | 1011.3 |
| 20260905213302 | 90 | 101 | 1.0 | 4.0 | 0.00 | 0.10 | 0.06 | 66 | 1011.3 |
| 20260905212800 | 90 | 72 | 0.0 | 3.0 | 0.00 | 0.10 | 0.06 | 64 | 1011.3 |
| 20260905212340 | 90 | 53 | 0.0 | 3.0 | 0.00 | 0.10 | 0.06 | 62 | 1011.2 |
| 20260905211834 | 90 | 52 | 0.0 | 3.0 | 0.00 | 0.11 | 0.06 | 62 | 1011.2 |
| 20260905211304 | 90 | 83 | 1.0 | 5.0 | 0.00 | 0.11 | 0.06 | 63 | 1011.2 |
| 20260905210800 | 90 | 223 | 0.0 | 3.0 | 0.00 | 0.11 | 0.06 | 65 | 1011.2 |
| 20260905210257 | 91 | 338 | 1.0 | 3.0 | 0.00 | 0.11 | 0.06 | 65 | 1011.1 |
| 20260905205812 | 91 | 348 | 1.0 | 3.0 | 0.00 | 0.11 | 0.06 | 65 | 1011.2 |
| 20260905205328 | 91 | 17 | 0.0 | 4.0 | 0.00 | 0.11 | 0.06 | 66 | 1011.2 |
| 20260905204804 | 91 | 344 | 1.0 | 5.0 | 0.00 | 0.11 | 0.06 | 65 | 1011.3 |
| 20260905204259 | 92 | 327 | 1.0 | 5.0 | 0.00 | 0.11 | 0.06 | 65 | 1011.2 |
| 20260905203816 | 92 | 28 | 1.0 | 4.0 | 0.01 | 0.11 | 0.06 | 64 | 1011.3 |
| 20260905203333 | 93 | 92 | 1.0 | 6.0 | 0.01 | 0.11 | 0.06 | 63 | 1011.3 |
| 20260905202807 | 93 | 121 | 1.0 | 6.0 | 0.01 | 0.11 | 0.06 | 62 | 1011.3 |
| 20260905202301 | 93 | 30 | 1.0 | 5.0 | 0.01 | 0.11 | 0.06 | 62 | 1011.4 |
| 20260905201759 | 93 | 171 | 2.0 | 6.0 | 0.01 | 0.11 | 0.06 | 61 | 1011.4 |
| 20260905201314 | 94 | 348 | 1.0 | 3.0 | 0.01 | 0.11 | 0.06 | 61 | 1011.4 |
| 20260905200813 | 94 | 34 | 0.0 | 3.0 | 0.01 | 0.11 | 0.06 | 60 | 1011.4 |
| 20260905200310 | 93 | 98 | 1.0 | 4.0 | 0.01 | 0.11 | 0.06 | 60 | 1011.4 |
| 20260905195806 | 93 | 77 | 1.0 | 4.0 | 0.01 | 0.11 | 0.06 | 59 | 1011.6 |
| 20260905195301 | 93 | 31 | 1.0 | 6.0 | 0.01 | 0.11 | 0.06 | 59 | 1011.6 |
| 20260905194816 | 93 | 12 | 2.0 | 6.0 | 0.01 | 0.11 | 0.06 | 59 | 1011.7 |
| 20260905194310 | 94 | 38 | 1.0 | 5.0 | 0.01 | 0.11 | 0.06 | 61 | 1011.8 |
| 20260905193807 | 94 | 14 | 2.0 | 5.0 | 0.00 | 0.10 | 0.05 | 58 | 1011.8 |
| 20260905193300 | 94 | 5 | 1.0 | 3.0 | 0.00 | 0.10 | 0.05 | 58 | 1012.0 |
| 20260905192757 | 94 | 41 | 0.0 | 4.0 | 0.00 | 0.10 | 0.05 | 59 | 1012.2 |
| 20260905192314 | 94 | 355 | 1.0 | 4.0 | 0.00 | 0.10 | 0.05 | 58 | 1012.1 |
| 20260905191811 | 94 | 342 | 1.0 | 5.0 | 0.00 | 0.11 | 0.05 | 58 | 1012.1 |
| 20260905191328 | 94 | 92 | 1.0 | 5.0 | 0.00 | 0.11 | 0.05 | 57 | 1012.3 |
| 20260905190803 | 94 | 5 | 0.0 | 3.0 | 0.00 | 0.11 | 0.05 | 57 | 1012.4 |
| 20260905190319 | 94 | 11 | 1.0 | 4.0 | 0.00 | 0.11 | 0.05 | 58 | 1012.5 |